createdAt,value
2018-07-03T00:00:24.215Z,15.31
2018-07-03T00:01:24.163Z,15.31
2018-07-03T00:02:24.111Z,15.38
2018-07-03T00:03:24.061Z,15.36
2018-07-03T00:04:24.011Z,15.41
2018-07-03T00:05:23.959Z,15.28
2018-07-03T00:06:23.906Z,15.27
2018-07-03T00:07:23.856Z,15.01
2018-07-03T00:08:23.803Z,14.94
2018-07-03T00:09:23.756Z,14.81
2018-07-03T00:10:23.699Z,14.57
2018-07-03T00:11:23.648Z,14.35
2018-07-03T00:12:23.596Z,14.16
2018-07-03T00:13:23.542Z,14.07
2018-07-03T00:14:23.490Z,14.09
2018-07-03T00:15:23.440Z,13.95
2018-07-03T00:16:23.388Z,14.02
2018-07-03T00:17:23.334Z,14.07
2018-07-03T00:18:23.282Z,14.12
2018-07-03T00:19:23.237Z,14.19
2018-07-03T00:20:23.178Z,14.13
2018-07-03T00:21:23.129Z,14.20
2018-07-03T00:22:23.074Z,14.27
2018-07-03T00:23:23.023Z,14.32
2018-07-03T00:24:22.969Z,14.27
2018-07-03T00:25:22.917Z,14.28
2018-07-03T00:26:22.865Z,14.35
2018-07-03T00:27:22.814Z,14.38
2018-07-03T00:28:22.761Z,14.32
2018-07-03T00:29:22.707Z,14.42
2018-07-03T00:30:22.659Z,14.34
2018-07-03T00:31:22.605Z,14.44
2018-07-03T00:32:22.553Z,14.49
2018-07-03T00:33:22.500Z,14.50
2018-07-03T00:34:22.450Z,14.57
2018-07-03T00:35:22.395Z,14.60
2018-07-03T00:36:22.344Z,14.75
2018-07-03T00:37:22.291Z,14.72
2018-07-03T00:38:22.241Z,14.87
2018-07-03T00:39:22.189Z,14.80
2018-07-03T00:40:22.136Z,14.81
2018-07-03T00:41:22.083Z,14.68
2018-07-03T00:42:22.030Z,14.57
2018-07-03T00:43:21.979Z,14.38
2018-07-03T00:44:21.931Z,14.44
2018-07-03T00:45:21.874Z,14.25
2018-07-03T00:46:21.823Z,14.10
2018-07-03T00:47:21.771Z,14.09
2018-07-03T00:48:21.723Z,13.96
2018-07-03T00:49:21.670Z,14.02
2018-07-03T00:50:21.614Z,13.88
2018-07-03T00:51:21.560Z,13.98
2018-07-03T00:52:21.511Z,13.91
2018-07-03T00:53:21.456Z,14.06
2018-07-03T00:54:21.403Z,14.06
2018-07-03T00:55:21.352Z,14.02
2018-07-03T00:56:21.300Z,13.98
2018-07-03T00:57:21.245Z,13.94
2018-07-03T00:58:21.196Z,13.98
2018-07-03T00:59:21.143Z,14.02
2018-07-03T01:00:21.091Z,14.10
2018-07-03T01:01:21.038Z,14.06
2018-07-03T01:02:20.985Z,14.06
2018-07-03T01:03:20.931Z,14.10
2018-07-03T01:04:20.878Z,14.21
2018-07-03T01:05:20.830Z,14.27
2018-07-03T01:06:20.777Z,14.28
2018-07-03T01:07:20.724Z,14.27
2018-07-03T01:08:20.671Z,14.25
2018-07-03T01:09:20.617Z,14.27
2018-07-03T01:10:20.565Z,14.21
2018-07-03T01:11:20.514Z,14.32
2018-07-03T01:12:20.460Z,14.27
2018-07-03T01:13:20.409Z,14.20
2018-07-03T01:14:20.357Z,14.17
2018-07-03T01:15:20.305Z,14.17
2018-07-03T01:16:20.252Z,14.21
2018-07-03T01:17:20.200Z,14.34
2018-07-03T01:18:20.147Z,14.21
2018-07-03T01:19:20.094Z,14.34
2018-07-03T01:20:20.043Z,14.27
2018-07-03T01:21:19.989Z,14.31
2018-07-03T01:22:19.937Z,14.19
2018-07-03T01:23:19.887Z,14.29
2018-07-03T01:24:19.833Z,14.19
2018-07-03T01:25:19.780Z,14.10
2018-07-03T01:26:19.730Z,14.06
2018-07-03T01:27:19.676Z,13.99
2018-07-03T01:28:19.623Z,14.01
2018-07-03T01:29:19.570Z,14.02
2018-07-03T01:30:19.520Z,13.89
2018-07-03T01:31:19.467Z,14.01
2018-07-03T01:32:19.414Z,13.89
2018-07-03T01:33:19.360Z,13.94
2018-07-03T01:34:19.310Z,13.83
2018-07-03T01:35:19.258Z,13.81
2018-07-03T01:36:19.206Z,13.92
2018-07-03T01:37:19.152Z,13.84
2018-07-03T01:38:19.099Z,13.91
2018-07-03T01:39:19.047Z,13.84
2018-07-03T01:40:18.996Z,13.92
2018-07-03T01:41:18.941Z,13.81
2018-07-03T01:42:18.889Z,13.81
2018-07-03T01:43:18.835Z,13.69
2018-07-03T01:44:18.784Z,13.76
2018-07-03T01:45:18.736Z,13.76
2018-07-03T01:46:18.677Z,13.79
2018-07-03T01:47:18.627Z,13.80
2018-07-03T01:48:18.573Z,13.92
2018-07-03T01:49:18.522Z,13.80
2018-07-03T01:50:18.469Z,13.94
2018-07-03T01:51:18.416Z,13.88
2018-07-03T01:52:18.362Z,13.94
2018-07-03T01:53:18.309Z,13.96
2018-07-03T01:54:18.257Z,14.04
2018-07-03T01:55:18.206Z,13.98
2018-07-03T01:56:18.153Z,14.09
2018-07-03T01:57:18.103Z,14.06
2018-07-03T01:58:18.049Z,14.10
2018-07-03T01:59:17.993Z,14.06
2018-07-03T02:00:17.942Z,14.01
2018-07-03T02:01:17.889Z,13.98
2018-07-03T02:02:17.840Z,13.99
2018-07-03T02:03:17.788Z,13.96
2018-07-03T02:04:17.733Z,13.94
2018-07-03T02:05:17.681Z,13.95
2018-07-03T02:06:17.630Z,13.95
2018-07-03T02:07:17.576Z,13.98
2018-07-03T02:08:17.523Z,13.88
2018-07-03T02:09:17.469Z,13.96
2018-07-03T02:10:17.416Z,14.01
2018-07-03T02:11:17.365Z,14.02
2018-07-03T02:12:17.311Z,13.89
2018-07-03T02:13:17.260Z,13.94
2018-07-03T02:14:17.206Z,13.81
2018-07-03T02:15:17.156Z,13.73
2018-07-03T02:16:17.102Z,13.61
2018-07-03T02:17:17.049Z,13.63
2018-07-03T02:18:16.995Z,13.55
2018-07-03T02:19:16.943Z,13.62
2018-07-03T02:20:16.891Z,13.62
2018-07-03T02:21:16.837Z,13.67
2018-07-03T02:22:16.785Z,13.76
2018-07-03T02:23:16.733Z,13.65
2018-07-03T02:24:16.681Z,13.56
2018-07-03T02:25:16.633Z,13.54
2018-07-03T02:26:16.574Z,13.51
2018-07-03T02:27:16.521Z,13.52
2018-07-03T02:28:16.470Z,13.47
2018-07-03T02:29:16.417Z,13.47
2018-07-03T02:30:16.367Z,13.58
2018-07-03T02:31:16.321Z,13.47
2018-07-03T02:32:16.265Z,13.51
2018-07-03T02:33:16.204Z,13.46
2018-07-03T02:34:16.151Z,13.47
2018-07-03T02:35:16.098Z,13.46
2018-07-03T02:36:16.051Z,13.46
2018-07-03T02:37:15.994Z,13.43
2018-07-03T02:38:15.943Z,13.51
2018-07-03T02:39:15.922Z,13.51
2018-07-03T02:40:15.834Z,13.47
2018-07-03T02:41:15.782Z,13.46
2018-07-03T02:42:15.729Z,13.41
2018-07-03T02:43:15.676Z,13.37
2018-07-03T02:44:15.623Z,13.29
2018-07-03T02:45:15.569Z,13.24
2018-07-03T02:46:15.516Z,13.32
2018-07-03T02:47:15.466Z,13.29
2018-07-03T02:48:15.412Z,13.37
2018-07-03T02:49:15.359Z,13.29
2018-07-03T02:50:15.307Z,13.37
2018-07-03T02:51:15.251Z,13.37
2018-07-03T02:52:15.200Z,13.36
2018-07-03T02:53:15.149Z,13.41
2018-07-03T02:54:15.099Z,13.44
2018-07-03T02:55:15.046Z,13.43
2018-07-03T02:56:14.990Z,13.51
2018-07-03T02:57:14.939Z,13.49
2018-07-03T02:58:14.881Z,13.52
2018-07-03T02:59:14.831Z,13.41
2018-07-03T03:00:14.779Z,13.32
2018-07-03T03:01:14.726Z,13.25
2018-07-03T03:02:14.671Z,13.44
2018-07-03T03:03:14.617Z,13.30
2018-07-03T03:04:14.566Z,13.32
2018-07-03T03:05:14.511Z,13.41
2018-07-03T03:06:14.461Z,13.33
2018-07-03T03:07:14.408Z,13.46
2018-07-03T03:08:14.419Z,13.44
2018-07-03T03:09:14.304Z,13.37
2018-07-03T03:10:14.246Z,13.44
2018-07-03T03:11:14.194Z,13.37
2018-07-03T03:12:14.142Z,13.40
2018-07-03T03:13:14.089Z,13.29
2018-07-03T03:14:14.034Z,13.37
2018-07-03T03:15:13.982Z,13.30
2018-07-03T03:16:13.934Z,13.30
2018-07-03T03:17:13.875Z,13.22
2018-07-03T03:18:13.825Z,13.24
2018-07-03T03:19:13.769Z,13.21
2018-07-03T03:20:13.718Z,13.15
2018-07-03T03:21:13.663Z,13.11
2018-07-03T03:22:13.612Z,13.09
2018-07-03T03:23:13.558Z,13.15
2018-07-03T03:24:13.505Z,13.17
2018-07-03T03:25:13.452Z,13.12
2018-07-03T03:26:13.401Z,13.15
2018-07-03T03:27:13.345Z,13.17
2018-07-03T03:28:13.293Z,13.09
2018-07-03T03:29:13.240Z,13.09
2018-07-03T03:30:13.188Z,13.02
2018-07-03T03:31:13.133Z,13.00
2018-07-03T03:32:13.079Z,13.03
2018-07-03T03:33:13.026Z,13.03
2018-07-03T03:34:12.975Z,13.11
2018-07-03T03:35:12.923Z,12.99
2018-07-03T03:36:12.875Z,13.12
2018-07-03T03:37:12.814Z,13.07
2018-07-03T03:38:12.762Z,13.07
2018-07-03T03:39:12.708Z,13.15
2018-07-03T03:40:12.654Z,13.14
2018-07-03T03:41:12.600Z,13.21
2018-07-03T03:42:12.549Z,13.29
2018-07-03T03:43:12.495Z,13.25
2018-07-03T03:44:12.443Z,13.25
2018-07-03T03:45:12.387Z,13.24
2018-07-03T03:46:12.335Z,13.18
2018-07-03T03:47:12.285Z,13.18
2018-07-03T03:48:12.230Z,13.21
2018-07-03T03:49:12.176Z,13.21
2018-07-03T03:50:12.123Z,13.25
2018-07-03T03:51:12.071Z,13.29
2018-07-03T03:52:12.016Z,13.29
2018-07-03T03:53:11.963Z,13.32
2018-07-03T03:54:11.909Z,13.33
2018-07-03T03:55:11.859Z,13.33
2018-07-03T03:56:11.803Z,13.36
2018-07-03T03:57:11.750Z,13.21
2018-07-03T03:58:11.697Z,13.15
2018-07-03T03:59:11.643Z,13.09
2018-07-03T04:00:11.593Z,13.07
2018-07-03T04:01:11.538Z,13.07
2018-07-03T04:02:11.488Z,13.14
2018-07-03T04:03:11.435Z,13.09
2018-07-03T04:04:11.380Z,13.12
2018-07-03T04:05:11.327Z,13.09
2018-07-03T04:06:11.272Z,13.21
2018-07-03T04:07:11.220Z,13.22
2018-07-03T04:08:11.169Z,13.27
2018-07-03T04:09:11.114Z,13.33
2018-07-03T04:10:11.061Z,13.33
2018-07-03T04:11:11.006Z,13.30
2018-07-03T04:12:10.956Z,13.32
2018-07-03T04:13:10.899Z,13.20
2018-07-03T04:14:10.847Z,13.17
2018-07-03T04:15:10.794Z,13.17
2018-07-03T04:16:10.741Z,13.12
2018-07-03T04:17:10.687Z,13.17
2018-07-03T04:18:10.635Z,13.11
2018-07-03T04:19:10.581Z,13.15
2018-07-03T04:20:10.534Z,13.11
2018-07-03T04:21:10.476Z,13.18
2018-07-03T04:22:10.424Z,13.20
2018-07-03T04:23:10.368Z,13.22
2018-07-03T04:24:10.316Z,13.32
2018-07-03T04:25:10.263Z,13.37
2018-07-03T04:26:10.208Z,13.30
2018-07-03T04:27:10.163Z,13.29
2018-07-03T04:28:10.108Z,13.38
2018-07-03T04:29:10.048Z,13.37
2018-07-03T04:30:09.997Z,13.30
2018-07-03T04:31:09.943Z,13.32
2018-07-03T04:32:09.897Z,13.29
2018-07-03T04:33:09.836Z,13.33
2018-07-03T04:34:09.842Z,13.36
2018-07-03T04:35:09.730Z,13.37
2018-07-03T04:36:09.676Z,13.33
2018-07-03T04:37:09.626Z,13.49
2018-07-03T04:38:09.571Z,13.55
2018-07-03T04:39:09.520Z,13.59
2018-07-03T04:40:09.464Z,13.70
2018-07-03T04:41:09.412Z,13.76
2018-07-03T04:42:09.357Z,13.69
2018-07-03T04:43:09.309Z,13.79
2018-07-03T04:44:09.252Z,13.65
2018-07-03T04:45:09.201Z,13.70
2018-07-03T04:46:09.144Z,13.77
2018-07-03T04:47:09.092Z,13.81
2018-07-03T04:48:09.041Z,13.88
2018-07-03T04:49:08.985Z,13.80
2018-07-03T04:50:08.933Z,13.95
2018-07-03T04:51:08.880Z,14.01
2018-07-03T04:52:08.827Z,13.99
2018-07-03T04:53:08.773Z,14.04
2018-07-03T04:54:08.724Z,14.04
2018-07-03T04:55:08.672Z,14.14
2018-07-03T04:56:08.613Z,14.17
2018-07-03T04:57:08.563Z,14.20
2018-07-03T04:58:08.508Z,14.31
2018-07-03T04:59:08.455Z,14.25
2018-07-03T05:00:08.402Z,14.32
2018-07-03T05:01:08.348Z,14.46
2018-07-03T05:02:08.342Z,14.46
2018-07-03T05:03:08.244Z,14.56
2018-07-03T05:04:08.191Z,14.65
2018-07-03T05:05:08.145Z,14.75
2018-07-03T05:06:08.085Z,14.86
2018-07-03T05:07:08.863Z,14.86
2018-07-03T05:08:07.981Z,14.84
2018-07-03T05:09:07.929Z,14.93
2018-07-03T05:10:07.890Z,14.98
2018-07-03T05:11:07.826Z,15.06
2018-07-03T05:12:07.771Z,15.08
2018-07-03T05:13:07.718Z,15.13
2018-07-03T05:14:07.664Z,15.17
2018-07-03T05:15:07.613Z,15.30
2018-07-03T05:16:07.561Z,15.35
2018-07-03T05:17:07.507Z,15.30
2018-07-03T05:18:07.457Z,15.42
2018-07-03T05:19:07.403Z,15.49
2018-07-03T05:20:07.352Z,15.52
2018-07-03T05:21:07.304Z,15.60
2018-07-03T05:22:07.249Z,15.60
2018-07-03T05:23:07.194Z,15.74
2018-07-03T05:24:07.143Z,15.78
2018-07-03T05:25:07.090Z,15.76
2018-07-03T05:26:07.038Z,15.85
2018-07-03T05:27:06.987Z,15.96
2018-07-03T05:28:06.936Z,16.07
2018-07-03T05:29:06.885Z,16.07
2018-07-03T05:30:06.836Z,16.16
2018-07-03T05:31:06.781Z,16.15
2018-07-03T05:32:06.729Z,16.20
2018-07-03T05:33:06.675Z,16.25
2018-07-03T05:34:06.624Z,16.37
2018-07-03T05:35:06.573Z,16.44
2018-07-03T05:36:06.526Z,16.41
2018-07-03T05:37:06.469Z,16.52
2018-07-03T05:38:06.416Z,16.56
2018-07-03T05:39:06.372Z,16.70
2018-07-03T05:40:06.317Z,16.71
2018-07-03T05:41:06.264Z,16.83
2018-07-03T05:42:06.216Z,16.85
2018-07-03T05:43:06.162Z,16.98
2018-07-03T05:44:06.118Z,16.96
2018-07-03T05:45:06.058Z,17.11
2018-07-03T05:46:06.007Z,17.15
2018-07-03T05:47:05.955Z,17.25
2018-07-03T05:48:05.906Z,17.29
2018-07-03T05:49:05.853Z,17.26
2018-07-03T05:50:05.806Z,17.33
2018-07-03T05:51:05.752Z,17.47
2018-07-03T05:52:05.701Z,17.46
2018-07-03T05:53:05.649Z,17.54
2018-07-03T05:54:05.599Z,17.55
2018-07-03T05:55:05.549Z,17.63
2018-07-03T05:56:05.499Z,17.66
2018-07-03T05:57:05.446Z,17.70
2018-07-03T05:58:05.396Z,17.81
2018-07-03T05:59:05.424Z,17.87
2018-07-03T06:00:05.529Z,17.76
2018-07-03T06:01:05.244Z,17.92
2018-07-03T06:02:05.194Z,17.99
2018-07-03T06:03:05.142Z,18.03
2018-07-03T06:04:05.093Z,18.03
2018-07-03T06:05:05.041Z,18.12
2018-07-03T06:06:04.995Z,18.25
2018-07-03T06:07:04.941Z,18.31
2018-07-03T06:08:04.891Z,18.25
2018-07-03T06:09:04.905Z,18.36
2018-07-03T06:10:04.789Z,18.43
2018-07-03T06:11:04.743Z,18.54
2018-07-03T06:12:04.691Z,18.55
2018-07-03T06:13:04.638Z,18.57
2018-07-03T06:14:04.592Z,18.62
2018-07-03T06:15:04.544Z,18.73
2018-07-03T06:16:04.532Z,18.82
2018-07-03T06:17:04.439Z,18.83
2018-07-03T06:18:04.416Z,18.92
2018-07-03T06:19:04.338Z,18.97
2018-07-03T06:20:04.292Z,18.95
2018-07-03T06:21:04.238Z,18.91
2018-07-03T06:22:04.187Z,19.01
2018-07-03T06:23:04.138Z,19.14
2018-07-03T06:24:04.090Z,19.20
2018-07-03T06:25:04.039Z,19.23
2018-07-03T06:26:03.990Z,19.29
2018-07-03T06:27:03.941Z,19.33
2018-07-03T06:28:03.893Z,19.33
2018-07-03T06:29:03.865Z,19.43
2018-07-03T06:30:03.790Z,19.48
2018-07-03T06:31:03.743Z,19.57
2018-07-03T06:32:03.693Z,19.61
2018-07-03T06:33:03.641Z,19.65
2018-07-03T06:34:03.592Z,19.73
2018-07-03T06:35:03.543Z,19.76
2018-07-03T06:36:03.493Z,19.94
2018-07-03T06:37:03.446Z,19.97
2018-07-03T06:38:03.402Z,20.08
2018-07-03T06:39:03.345Z,20.13
2018-07-03T06:40:03.302Z,20.33
2018-07-03T06:41:03.249Z,20.35
2018-07-03T06:42:03.197Z,20.35
2018-07-03T06:43:03.147Z,20.42
2018-07-03T06:44:03.100Z,20.49
2018-07-03T06:45:03.110Z,20.65
2018-07-03T06:46:03.003Z,20.61
2018-07-03T06:47:02.952Z,20.76
2018-07-03T06:48:03.012Z,20.71
2018-07-03T06:49:02.854Z,20.80
2018-07-03T06:50:02.953Z,20.80
2018-07-03T06:51:02.757Z,20.89
2018-07-03T06:52:02.712Z,20.90
2018-07-03T06:53:02.658Z,20.98
2018-07-03T06:54:02.609Z,21.05
2018-07-03T06:55:02.565Z,21.13
2018-07-03T06:56:02.512Z,21.17
2018-07-03T06:57:02.465Z,21.19
2018-07-03T06:58:02.416Z,21.38
2018-07-03T06:59:02.368Z,21.42
2018-07-03T07:00:02.325Z,21.50
2018-07-03T07:01:02.268Z,21.56
2018-07-03T07:02:02.221Z,21.60
2018-07-03T07:03:02.175Z,21.74
2018-07-03T07:04:02.125Z,21.61
2018-07-03T07:05:02.076Z,21.83
2018-07-03T07:06:02.036Z,21.79
2018-07-03T07:07:01.983Z,21.90
2018-07-03T07:08:01.932Z,21.98
2018-07-03T07:09:02.037Z,21.99
2018-07-03T07:10:01.835Z,22.04
2018-07-03T07:11:01.789Z,22.12
2018-07-03T07:12:01.739Z,22.16
2018-07-03T07:13:01.690Z,22.16
2018-07-03T07:14:01.642Z,22.25
2018-07-03T07:15:01.654Z,22.32
2018-07-03T07:16:01.549Z,22.39
2018-07-03T07:17:01.499Z,22.52
2018-07-03T07:18:01.451Z,22.56
2018-07-03T07:19:01.405Z,22.62
2018-07-03T07:20:01.356Z,22.69
2018-07-03T07:21:01.310Z,22.84
2018-07-03T07:22:01.262Z,22.93
2018-07-03T07:23:01.215Z,22.93
2018-07-03T07:24:01.167Z,22.94
2018-07-03T07:25:01.120Z,22.99
2018-07-03T07:26:01.071Z,23.02
2018-07-03T07:27:01.026Z,23.08
2018-07-03T07:28:00.994Z,23.04
2018-07-03T07:29:00.929Z,23.17
2018-07-03T07:30:00.882Z,23.19
2018-07-03T07:31:00.835Z,23.22
2018-07-03T07:32:00.788Z,23.35
2018-07-03T07:33:00.743Z,23.35
2018-07-03T07:34:00.692Z,23.42
2018-07-03T07:35:00.647Z,23.52
2018-07-03T07:36:00.626Z,23.61
2018-07-03T07:37:00.552Z,23.62
2018-07-03T07:38:00.518Z,23.65
2018-07-03T07:39:00.461Z,23.62
2018-07-03T07:40:00.413Z,23.67
2018-07-03T07:41:00.365Z,23.71
2018-07-03T07:42:00.317Z,23.85
2018-07-03T07:43:00.271Z,23.80
2018-07-03T07:44:00.225Z,23.89
2018-07-03T07:45:00.181Z,23.94
2018-07-03T07:46:00.131Z,24.07
2018-07-03T07:47:00.091Z,24.12
2018-07-03T07:48:00.046Z,24.24
2018-07-03T07:48:59.990Z,24.39
2018-07-03T07:49:59.944Z,24.42
2018-07-03T07:50:59.900Z,24.53
2018-07-03T07:51:59.852Z,24.60
2018-07-03T07:52:59.807Z,24.67
2018-07-03T07:53:59.762Z,24.90
2018-07-03T07:54:59.745Z,24.85
2018-07-03T07:55:59.667Z,24.92
2018-07-03T07:56:59.621Z,24.95
2018-07-03T07:57:59.576Z,25.20
2018-07-03T07:58:59.535Z,25.25
2018-07-03T07:59:59.484Z,25.30
2018-07-03T08:00:59.440Z,25.30
2018-07-03T08:01:59.392Z,25.46
2018-07-03T08:02:59.348Z,25.54
2018-07-03T08:03:59.301Z,25.64
2018-07-03T08:04:59.254Z,25.67
2018-07-03T08:05:59.210Z,25.59
2018-07-03T08:06:59.163Z,25.75
2018-07-03T08:07:59.121Z,25.79
2018-07-03T08:08:59.074Z,25.90
2018-07-03T08:09:59.031Z,25.98
2018-07-03T08:10:58.980Z,26.06
2018-07-03T08:11:58.936Z,26.05
2018-07-03T08:12:58.889Z,26.09
2018-07-03T08:13:58.846Z,26.02
2018-07-03T08:14:58.802Z,26.05
2018-07-03T08:15:58.757Z,26.12
2018-07-03T08:16:58.711Z,26.36
2018-07-03T08:17:58.666Z,26.35
2018-07-03T08:18:58.619Z,26.29
2018-07-03T08:19:58.576Z,26.29
2018-07-03T08:20:58.528Z,26.37
2018-07-03T08:21:58.484Z,26.50
2018-07-03T08:22:58.438Z,26.59
2018-07-03T08:23:58.394Z,26.68
2018-07-03T08:24:58.349Z,26.69
2018-07-03T08:25:58.305Z,26.69
2018-07-03T08:26:58.259Z,26.80
2018-07-03T08:27:58.218Z,26.92
2018-07-03T08:28:58.170Z,26.87
2018-07-03T08:29:58.126Z,26.86
2018-07-03T08:30:58.082Z,26.98
2018-07-03T08:31:58.036Z,26.94
2018-07-03T08:32:57.991Z,26.94
2018-07-03T08:33:57.960Z,27.10
2018-07-03T08:34:57.904Z,27.26
2018-07-03T08:35:57.858Z,27.17
2018-07-03T08:36:57.814Z,27.17
2018-07-03T08:37:57.771Z,27.26
2018-07-03T08:38:57.726Z,27.24
2018-07-03T08:39:57.685Z,27.21
2018-07-03T08:40:57.639Z,27.21
2018-07-03T08:41:57.596Z,26.94
2018-07-03T08:42:57.629Z,26.94
2018-07-03T08:43:57.509Z,27.01
2018-07-03T08:44:57.462Z,27.16
2018-07-03T08:45:57.417Z,27.21
2018-07-03T08:46:57.373Z,27.38
2018-07-03T08:47:57.330Z,27.48
2018-07-03T08:48:57.286Z,27.53
2018-07-03T08:49:57.242Z,27.38
2018-07-03T08:50:57.199Z,27.41
2018-07-03T08:51:57.171Z,27.53
2018-07-03T08:52:57.111Z,27.70
2018-07-03T08:53:57.074Z,27.76
2018-07-03T08:54:57.028Z,27.86
2018-07-03T08:55:56.982Z,27.85
2018-07-03T08:56:56.940Z,27.82
2018-07-03T08:57:56.896Z,27.86
2018-07-03T08:58:56.853Z,27.98
2018-07-03T08:59:56.805Z,27.99
2018-07-03T09:00:56.783Z,27.92
2018-07-03T09:01:56.718Z,28.01
2018-07-03T09:02:56.677Z,28.03
2018-07-03T09:03:56.633Z,28.17
2018-07-03T09:04:56.589Z,28.16
2018-07-03T09:05:56.546Z,28.16
2018-07-03T09:06:56.558Z,27.99
2018-07-03T09:07:56.459Z,27.91
2018-07-03T09:08:56.419Z,27.89
2018-07-03T09:09:56.375Z,27.85
2018-07-03T09:10:56.331Z,27.98
2018-07-03T09:11:56.288Z,28.09
2018-07-03T09:12:56.246Z,28.25
2018-07-03T09:13:56.202Z,28.38
2018-07-03T09:14:56.159Z,28.44
2018-07-03T09:15:56.116Z,28.36
2018-07-03T09:16:56.083Z,28.21
2018-07-03T09:17:56.062Z,28.09
2018-07-03T09:18:55.985Z,28.22
2018-07-03T09:19:55.944Z,28.11
2018-07-03T09:20:55.900Z,28.28
2018-07-03T09:21:55.857Z,28.41
2018-07-03T09:22:55.815Z,28.59
2018-07-03T09:23:55.772Z,28.73
2018-07-03T09:24:55.731Z,28.77
2018-07-03T09:25:55.686Z,28.78
2018-07-03T09:26:55.645Z,28.78
2018-07-03T09:27:55.601Z,28.93
2018-07-03T09:28:55.557Z,28.93
2018-07-03T09:29:55.519Z,28.78
2018-07-03T09:30:55.472Z,28.81
2018-07-03T09:31:55.435Z,28.68
2018-07-03T09:32:55.387Z,28.60
2018-07-03T09:33:55.343Z,28.63
2018-07-03T09:34:55.302Z,28.58
2018-07-03T09:35:55.263Z,28.65
2018-07-03T09:36:55.220Z,28.75
2018-07-03T09:37:55.175Z,28.93
2018-07-03T09:38:55.131Z,28.88
2018-07-03T09:39:55.090Z,28.82
2018-07-03T09:40:55.050Z,28.75
2018-07-03T09:41:55.003Z,28.82
2018-07-03T09:42:54.963Z,28.95
2018-07-03T09:43:54.920Z,29.08
2018-07-03T09:44:54.876Z,29.03
2018-07-03T09:45:54.835Z,29.00
2018-07-03T09:46:54.794Z,28.75
2018-07-03T09:47:54.750Z,28.58
2018-07-03T09:48:54.734Z,28.40
2018-07-03T09:49:54.667Z,28.31
2018-07-03T09:50:54.622Z,28.19
2018-07-03T09:51:54.583Z,28.01
2018-07-03T09:52:54.538Z,27.98
2018-07-03T09:53:54.494Z,28.09
2018-07-03T09:54:54.467Z,28.23
2018-07-03T09:55:54.409Z,28.33
2018-07-03T09:56:54.368Z,28.38
2018-07-03T09:57:54.324Z,28.31
2018-07-03T09:58:54.286Z,28.38
2018-07-03T09:59:54.239Z,28.41
2018-07-03T10:00:54.200Z,28.50
2018-07-03T10:01:54.156Z,28.63
2018-07-03T10:02:54.110Z,28.54
2018-07-03T10:03:54.069Z,28.62
2018-07-03T10:04:54.029Z,28.51
2018-07-03T10:05:53.989Z,28.51
2018-07-03T10:06:53.949Z,28.59
2018-07-03T10:07:53.901Z,28.62
2018-07-03T10:08:53.855Z,28.59
2018-07-03T10:09:53.812Z,28.58
2018-07-03T10:10:53.770Z,28.50
2018-07-03T10:11:53.729Z,28.60
2018-07-03T10:12:53.701Z,28.68
2018-07-03T10:13:53.648Z,28.62
2018-07-03T10:14:53.600Z,28.58
2018-07-03T10:15:53.559Z,28.62
2018-07-03T10:16:53.514Z,28.69
2018-07-03T10:17:53.476Z,28.90
2018-07-03T10:18:53.488Z,28.90
2018-07-03T10:19:53.387Z,28.91
2018-07-03T10:20:53.344Z,29.03
2018-07-03T10:21:53.303Z,29.19
2018-07-03T10:22:53.262Z,29.37
2018-07-03T10:23:53.217Z,29.38
2018-07-03T10:24:53.178Z,29.53
2018-07-03T10:25:53.136Z,29.63
2018-07-03T10:26:53.092Z,29.74
2018-07-03T10:27:53.050Z,29.78
2018-07-03T10:28:53.007Z,29.47
2018-07-03T10:29:52.965Z,29.40
2018-07-03T10:30:52.924Z,29.49
2018-07-03T10:31:52.882Z,29.38
2018-07-03T10:32:52.840Z,29.47
2018-07-03T10:33:52.798Z,29.50
2018-07-03T10:34:52.758Z,29.72
2018-07-03T10:35:52.720Z,29.93
2018-07-03T10:36:52.672Z,29.99
2018-07-03T10:37:52.631Z,29.96
2018-07-03T10:38:52.593Z,29.90
2018-07-03T10:39:52.549Z,29.87
2018-07-03T10:40:52.507Z,29.87
2018-07-03T10:41:52.463Z,30.00
2018-07-03T10:42:52.423Z,29.99
2018-07-03T10:43:52.383Z,30.07
2018-07-03T10:44:52.338Z,30.19
2018-07-03T10:45:52.299Z,30.26
2018-07-03T10:46:52.258Z,30.23
2018-07-03T10:47:52.214Z,30.33
2018-07-03T10:48:52.225Z,30.34
2018-07-03T10:49:52.133Z,30.34
2018-07-03T10:50:52.090Z,30.18
2018-07-03T10:51:52.047Z,30.21
2018-07-03T10:52:52.006Z,30.18
2018-07-03T10:53:51.965Z,30.00
2018-07-03T10:54:51.924Z,29.93
2018-07-03T10:55:51.883Z,29.99
2018-07-03T10:56:51.840Z,30.08
2018-07-03T10:57:51.800Z,29.99
2018-07-03T10:58:51.759Z,30.18
2018-07-03T10:59:51.719Z,30.21
2018-07-03T11:00:51.676Z,30.14
2018-07-03T11:01:51.635Z,30.07
2018-07-03T11:02:51.594Z,30.24
2018-07-03T11:03:51.558Z,30.36
2018-07-03T11:04:51.509Z,30.46
2018-07-03T11:05:51.470Z,30.52
2018-07-03T11:06:51.428Z,30.53
2018-07-03T11:07:51.389Z,30.52
2018-07-03T11:08:51.345Z,30.54
2018-07-03T11:09:51.308Z,30.34
2018-07-03T11:10:51.263Z,30.23
2018-07-03T11:11:51.222Z,30.24
2018-07-03T11:12:51.183Z,30.40
2018-07-03T11:13:51.207Z,30.49
2018-07-03T11:14:51.100Z,30.02
2018-07-03T11:15:51.064Z,29.93
2018-07-03T11:16:51.017Z,29.94
2018-07-03T11:17:50.978Z,29.90
2018-07-03T11:18:50.937Z,30.07
2018-07-03T11:19:50.981Z,30.09
2018-07-03T11:20:50.854Z,30.29
2018-07-03T11:21:50.815Z,30.29
2018-07-03T11:22:50.775Z,30.24
2018-07-03T11:23:50.731Z,30.26
2018-07-03T11:24:50.693Z,30.03
2018-07-03T11:25:50.651Z,30.24
2018-07-03T11:26:50.608Z,30.40
2018-07-03T11:27:50.569Z,30.50
2018-07-03T11:28:50.552Z,30.61
2018-07-03T11:29:50.486Z,30.62
2018-07-03T11:30:50.443Z,30.67
2018-07-03T11:31:50.403Z,30.74
2018-07-03T11:32:50.364Z,30.64
2018-07-03T11:33:50.321Z,30.59
2018-07-03T11:34:50.281Z,30.29
2018-07-03T11:35:50.244Z,30.29
2018-07-03T11:36:50.199Z,30.30
2018-07-03T11:37:50.175Z,30.27
2018-07-03T11:38:50.117Z,30.33
2018-07-03T11:39:50.077Z,30.46
2018-07-03T11:40:50.037Z,30.61
2018-07-03T11:41:49.994Z,30.86
2018-07-03T11:42:49.953Z,30.93
2018-07-03T11:43:49.915Z,30.90
2018-07-03T11:44:49.911Z,30.98
2018-07-03T11:45:49.831Z,31.17
2018-07-03T11:46:49.799Z,31.18
2018-07-03T11:47:49.750Z,31.13
2018-07-03T11:48:49.708Z,31.01
2018-07-03T11:49:49.668Z,30.76
2018-07-03T11:50:49.628Z,30.74
2018-07-03T11:51:49.589Z,30.74
2018-07-03T11:52:49.545Z,30.80
2018-07-03T11:53:49.507Z,30.65
2018-07-03T11:54:49.466Z,30.71
2018-07-03T11:55:49.425Z,30.98
2018-07-03T11:56:49.389Z,31.20
2018-07-03T11:57:49.343Z,31.39
2018-07-03T11:58:49.307Z,31.39
2018-07-03T11:59:49.268Z,31.38
2018-07-03T12:00:49.222Z,31.26
2018-07-03T12:01:49.185Z,30.87
2018-07-03T12:02:49.141Z,30.47
2018-07-03T12:03:49.108Z,30.50
2018-07-03T12:04:49.059Z,30.52
2018-07-03T12:05:49.021Z,30.57
2018-07-03T12:06:48.983Z,30.76
2018-07-03T12:07:48.943Z,30.80
2018-07-03T12:08:48.899Z,30.84
2018-07-03T12:09:48.861Z,30.87
2018-07-03T12:10:48.818Z,30.83
2018-07-03T12:11:48.776Z,30.86
2018-07-03T12:12:48.739Z,30.83
2018-07-03T12:13:48.698Z,30.98
2018-07-03T12:14:48.654Z,30.78
2018-07-03T12:15:48.617Z,30.78
2018-07-03T12:16:48.573Z,30.93
2018-07-03T12:17:48.533Z,31.02
2018-07-03T12:18:48.493Z,31.18
2018-07-03T12:19:48.463Z,31.33
2018-07-03T12:20:48.413Z,31.31
2018-07-03T12:21:48.375Z,31.31
2018-07-03T12:22:48.333Z,31.28
2018-07-03T12:23:48.293Z,31.24
2018-07-03T12:24:48.249Z,31.35
2018-07-03T12:25:48.211Z,31.33
2018-07-03T12:26:48.170Z,31.18
2018-07-03T12:27:48.130Z,31.21
2018-07-03T12:28:48.111Z,31.28
2018-07-03T12:29:48.048Z,30.72
2018-07-03T12:30:48.010Z,30.64
2018-07-03T12:31:47.969Z,30.54
2018-07-03T12:32:47.926Z,30.61
2018-07-03T12:33:47.890Z,30.50
2018-07-03T12:34:47.846Z,30.37
2018-07-03T12:35:47.805Z,30.15
2018-07-03T12:36:47.800Z,29.97
2018-07-03T12:37:47.725Z,29.86
2018-07-03T12:38:47.683Z,29.78
2018-07-03T12:39:47.644Z,29.81
2018-07-03T12:40:47.607Z,29.89
2018-07-03T12:41:47.563Z,29.68
2018-07-03T12:42:47.521Z,29.68
2018-07-03T12:43:47.482Z,29.86
2018-07-03T12:44:47.441Z,29.78
2018-07-03T12:45:47.398Z,29.75
2018-07-03T12:46:47.356Z,29.81
2018-07-03T12:47:47.315Z,29.81
2018-07-03T12:48:47.276Z,29.62
2018-07-03T12:49:47.274Z,29.66
2018-07-03T12:50:47.190Z,29.43
2018-07-03T12:51:47.157Z,29.35